createdAt,value
2022-08-19T00:00:51.746Z,100784.47
2022-08-19T00:05:53.876Z,100774.19
2022-08-19T00:10:55.426Z,100781.44
2022-08-19T00:15:59.501Z,100793.75
2022-08-19T00:21:01.690Z,100787.66
2022-08-19T00:26:05.608Z,100782.41
2022-08-19T00:31:08.667Z,100776.44
2022-08-19T00:36:13.432Z,100766.59
2022-08-19T00:41:19.007Z,100768.38
2022-08-19T00:46:21.423Z,100769.22
2022-08-19T00:51:27.497Z,100769.88
2022-08-19T00:56:29.950Z,100776.34
2022-08-19T01:01:31.612Z,100767.31
2022-08-19T01:06:36.641Z,100770.25
2022-08-19T01:11:42.607Z,100769.88
2022-08-19T01:16:46.236Z,100773.06
2022-08-19T01:21:56.722Z,100772.13
2022-08-19T01:26:58.628Z,100768.34
2022-08-19T01:32:01.772Z,100767.66
2022-08-19T01:37:09.407Z,100760.97
2022-08-19T01:42:13.737Z,100767.06
2022-08-19T01:47:15.871Z,100759.25
2022-08-19T01:52:17.635Z,100762.50
2022-08-19T01:57:19.553Z,100756.63
2022-08-19T02:02:21.003Z,100763.56
2022-08-19T02:07:22.687Z,100754.06
2022-08-19T02:12:24.365Z,100755.31
2022-08-19T02:17:25.991Z,100757.72
2022-08-19T02:22:27.716Z,100754.97
2022-08-19T02:27:30.032Z,100761.88
2022-08-19T02:32:32.156Z,100756.97
2022-08-19T02:37:52.395Z,100756.47
2022-08-19T02:42:54.278Z,100757.47
2022-08-19T02:47:57.860Z,100774.13
2022-08-19T02:52:59.674Z,100766.66
2022-08-19T02:58:01.355Z,100773.25
2022-08-19T03:03:02.920Z,100780.91
2022-08-19T03:08:05.108Z,100791.47
2022-08-19T03:13:06.781Z,100789.06
2022-08-19T03:18:08.640Z,100788.19
2022-08-19T03:23:11.151Z,100780.66
2022-08-19T03:28:14.046Z,100773.50
2022-08-19T03:33:18.124Z,100782.41
2022-08-19T03:38:29.228Z,100784.53
2022-08-19T03:43:30.804Z,100784.63
2022-08-19T03:48:33.129Z,100779.06
2022-08-19T03:53:35.894Z,100768.56
2022-08-19T03:58:38.544Z,100780.53
2022-08-19T04:03:41.387Z,100783.97
2022-08-19T04:08:44.682Z,100782.44
2022-08-19T04:13:46.314Z,100777.25
2022-08-19T04:18:49.204Z,100779.19
2022-08-19T04:23:51.235Z,100781.03
2022-08-19T04:28:55.265Z,100773.91
2022-08-19T04:33:59.153Z,100773.59
2022-08-19T04:39:05.980Z,100783.00
2022-08-19T04:44:07.963Z,100789.97
2022-08-19T04:49:13.226Z,100793.06
2022-08-19T04:54:19.140Z,100798.25
2022-08-19T04:59:39.490Z,100794.03
2022-08-19T05:04:41.060Z,100797.88
2022-08-19T05:09:57.907Z,100812.81
2022-08-19T05:15:01.783Z,100836.22
2022-08-19T05:20:24.628Z,100835.06
2022-08-19T05:25:26.473Z,100832.56
2022-08-19T05:30:46.105Z,100827.53
2022-08-19T05:35:50.514Z,100844.09
2022-08-19T05:40:52.488Z,100843.81
2022-08-19T05:45:54.256Z,100837.47
2022-08-19T05:50:55.846Z,100848.72
2022-08-19T05:55:57.595Z,100846.25
2022-08-19T06:01:05.294Z,100840.44
2022-08-19T06:06:10.432Z,100839.50
2022-08-19T06:11:23.180Z,100846.75
2022-08-19T06:16:24.650Z,100838.47
2022-08-19T06:21:28.552Z,100845.78
2022-08-19T06:26:30.285Z,100860.06
2022-08-19T06:31:34.454Z,100856.19
2022-08-19T06:36:42.694Z,100865.81
2022-08-19T06:41:51.803Z,100863.44
2022-08-19T06:46:56.358Z,100864.22
2022-08-19T06:51:58.952Z,100873.41
2022-08-19T06:57:04.111Z,100869.00
2022-08-19T07:02:07.617Z,100866.53
2022-08-19T07:07:20.072Z,100872.16
2022-08-19T07:12:22.693Z,100883.41
2022-08-19T07:17:24.353Z,100896.19
2022-08-19T07:22:26.771Z,100893.91
2022-08-19T07:27:28.436Z,100898.16
2022-08-19T07:32:31.757Z,100909.84
2022-08-19T07:37:36.020Z,100903.13
2022-08-19T07:42:38.866Z,100911.44
2022-08-19T07:47:49.270Z,100916.66
2022-08-19T07:52:52.735Z,100917.09
2022-08-19T07:57:54.505Z,100917.72
2022-08-19T08:02:56.312Z,100928.78
2022-08-19T08:08:16.439Z,100927.72
2022-08-19T08:13:18.194Z,100930.63
2022-08-19T08:18:21.602Z,100928.00
2022-08-19T08:23:25.699Z,100927.94
2022-08-19T08:28:31.206Z,100930.25
2022-08-19T08:33:35.234Z,100940.44
2022-08-19T08:38:40.169Z,100947.13
2022-08-19T08:43:47.472Z,100951.63
2022-08-19T08:49:05.138Z,100948.72
2022-08-19T08:54:10.994Z,100956.66
2022-08-19T08:59:29.056Z,100946.28
2022-08-19T09:04:31.212Z,100947.72
2022-08-19T09:09:42.207Z,100944.63
2022-08-19T09:15:06.948Z,100939.06
2022-08-19T09:20:11.320Z,100933.31
2022-08-19T09:25:27.102Z,100929.28
2022-08-19T09:30:35.394Z,100934.44
2022-08-19T09:35:49.925Z,100938.06
2022-08-19T09:40:55.324Z,100933.84
2022-08-19T09:45:58.223Z,100935.97
2022-08-19T09:51:11.942Z,100933.16
2022-08-19T09:56:14.347Z,100930.16
2022-08-19T10:01:21.703Z,100936.97
2022-08-19T10:06:45.539Z,100933.63
2022-08-19T10:11:54.588Z,100929.41
2022-08-19T10:16:57.494Z,100920.25
2022-08-19T10:22:04.173Z,100924.13
2022-08-19T10:27:06.692Z,100913.59
2022-08-19T10:32:10.903Z,100916.72
2022-08-19T10:37:14.422Z,100907.78
2022-08-19T10:42:19.864Z,100901.31
2022-08-19T10:47:25.573Z,100900.56
2022-08-19T10:52:38.870Z,100901.13
2022-08-19T10:58:01.165Z,100903.53
2022-08-19T11:03:03.676Z,100906.03
2022-08-19T11:08:23.517Z,100905.75
2022-08-19T11:13:25.976Z,100897.38
2022-08-19T11:18:27.792Z,100885.84
2022-08-19T11:23:29.251Z,100888.91
2022-08-19T11:28:30.855Z,100896.28
2022-08-19T11:33:33.539Z,100901.19
2022-08-19T11:38:36.566Z,100893.94
2022-08-19T11:43:38.292Z,100881.31
2022-08-19T11:48:40.735Z,100883.13
2022-08-19T11:53:42.393Z,100880.97
2022-08-19T11:58:44.503Z,100879.66
2022-08-19T12:03:48.267Z,100870.03
2022-08-19T12:08:49.848Z,100878.81
2022-08-19T12:13:52.063Z,100882.19
2022-08-19T12:18:54.367Z,100872.75
2022-08-19T12:23:57.700Z,100870.25
2022-08-19T12:29:00.393Z,100876.91
2022-08-19T12:34:03.349Z,100861.69
2022-08-19T12:39:05.205Z,100859.44
2022-08-19T12:44:07.366Z,100851.72
2022-08-19T12:49:27.367Z,100854.88
2022-08-19T12:54:33.092Z,100844.56
2022-08-19T12:59:38.958Z,100839.34
2022-08-19T13:04:41.709Z,100843.13
2022-08-19T13:09:43.624Z,100851.88
2022-08-19T13:14:50.840Z,100850.03
2022-08-19T13:19:52.871Z,100830.03
2022-08-19T13:24:54.403Z,100837.22
2022-08-19T13:30:14.418Z,100831.91
2022-08-19T13:35:17.594Z,100834.78
2022-08-19T13:40:23.732Z,100811.78
2022-08-19T13:45:27.207Z,100816.94
2022-08-19T13:50:34.576Z,100819.41
2022-08-19T13:55:38.532Z,100805.97
2022-08-19T14:00:44.516Z,100807.41
2022-08-19T14:05:47.543Z,100803.03
2022-08-19T14:10:49.713Z,100802.47
2022-08-19T14:15:52.089Z,100797.28
2022-08-19T14:20:53.815Z,100804.03
2022-08-19T14:26:04.648Z,100803.16
2022-08-19T14:31:06.204Z,100814.38
2022-08-19T14:36:08.020Z,100800.88
2022-08-19T14:41:17.404Z,100807.75
2022-08-19T14:46:22.019Z,100806.59
2022-08-19T14:51:27.369Z,100802.91
2022-08-19T14:56:31.349Z,100808.63
2022-08-19T15:01:32.889Z,100811.06
2022-08-19T15:06:34.839Z,100814.66
2022-08-19T15:11:37.622Z,100817.53
2022-08-19T15:16:42.539Z,100828.19
2022-08-19T15:21:44.148Z,100827.59
2022-08-19T15:26:45.663Z,100834.75
2022-08-19T15:31:47.214Z,100842.41
2022-08-19T15:36:50.998Z,100850.44
2022-08-19T15:41:52.759Z,100851.06
2022-08-19T15:46:54.567Z,100858.81
2022-08-19T15:51:57.924Z,100865.34
2022-08-19T15:57:17.814Z,100856.81
2022-08-19T16:02:40.432Z,100857.34
2022-08-19T16:07:42.228Z,100852.66
2022-08-19T16:12:43.687Z,100863.75
2022-08-19T16:17:45.205Z,100867.41
2022-08-19T16:22:59.141Z,100861.94
2022-08-19T16:28:07.258Z,100861.84
2022-08-19T16:33:09.987Z,100863.31
2022-08-19T16:38:11.491Z,100855.78
2022-08-19T16:43:13.174Z,100862.34
2022-08-19T16:48:14.863Z,100863.47
2022-08-19T16:53:22.034Z,100869.97
2022-08-19T16:58:29.027Z,100865.03
2022-08-19T17:03:36.773Z,100862.13
2022-08-19T17:08:38.751Z,100864.09
2022-08-19T17:13:40.237Z,100866.47
2022-08-19T17:18:45.004Z,100866.78
2022-08-19T17:23:46.521Z,100865.16
2022-08-19T17:28:50.132Z,100853.22
2022-08-19T17:33:52.518Z,100856.56
2022-08-19T17:39:00.231Z,100868.38
2022-08-19T17:44:03.764Z,100857.91
2022-08-19T17:49:05.350Z,100861.59
2022-08-19T17:54:10.732Z,100857.34
2022-08-19T17:59:14.087Z,100866.25
2022-08-19T18:04:17.049Z,100855.44
2022-08-19T18:09:18.567Z,100864.03
2022-08-19T18:14:32.039Z,100866.47
2022-08-19T18:19:41.597Z,100872.81
2022-08-19T18:24:45.915Z,100872.28
2022-08-19T18:29:47.931Z,100880.72
2022-08-19T18:34:49.420Z,100876.34
2022-08-19T18:40:09.295Z,100889.75
2022-08-19T18:45:31.967Z,100897.88
2022-08-19T18:50:33.639Z,100895.63
2022-08-19T18:55:35.219Z,100902.66
2022-08-19T19:00:37.331Z,100902.56
2022-08-19T19:05:39.922Z,100898.78
2022-08-19T19:10:42.251Z,100903.91
2022-08-19T19:15:43.883Z,100915.66
2022-08-19T19:20:45.420Z,100921.59
2022-08-19T19:25:51.029Z,100940.44
2022-08-19T19:30:57.448Z,100942.00
2022-08-19T19:35:59.452Z,100938.34
2022-08-19T19:41:01.347Z,100940.75
2022-08-19T19:46:02.900Z,100942.53
2022-08-19T19:51:04.571Z,100950.91
2022-08-19T19:56:06.530Z,100945.13
2022-08-19T20:01:12.499Z,100936.22
2022-08-19T20:06:19.572Z,100937.66
2022-08-19T20:11:35.051Z,100947.56
2022-08-19T20:16:38.094Z,100957.94
2022-08-19T20:21:45.441Z,100953.53
2022-08-19T20:26:53.554Z,100955.97
2022-08-19T20:31:57.571Z,100959.28
2022-08-19T20:37:00.669Z,100957.38
2022-08-19T20:42:02.179Z,100959.47
2022-08-19T20:47:04.251Z,100964.91
2022-08-19T20:52:06.383Z,100964.63
2022-08-19T20:57:08.708Z,100968.22
2022-08-19T21:02:11.111Z,100976.78
2022-08-19T21:07:12.576Z,100973.03
2022-08-19T21:12:14.355Z,100982.94
2022-08-19T21:17:15.859Z,100970.75
2022-08-19T21:22:18.484Z,100967.31
2022-08-19T21:27:20.035Z,100966.25
2022-08-19T21:32:21.615Z,100975.69
2022-08-19T21:37:25.745Z,100967.34
2022-08-19T21:42:27.600Z,100970.94
2022-08-19T21:47:29.123Z,100964.97
2022-08-19T21:52:30.656Z,100977.03
2022-08-19T21:57:32.172Z,100977.50
2022-08-19T22:02:33.795Z,100981.19
2022-08-19T22:07:36.751Z,100988.72
2022-08-19T22:12:46.001Z,100990.19
2022-08-19T22:17:54.323Z,100994.75
2022-08-19T22:23:02.871Z,100982.13
2022-08-19T22:28:07.906Z,100998.66
2022-08-19T22:33:16.957Z,101000.19
2022-08-19T22:38:18.423Z,101009.31
2022-08-19T22:43:24.427Z,101013.38
2022-08-19T22:48:28.481Z,101006.34
2022-08-19T22:53:30.091Z,101014.94
2022-08-19T22:58:31.892Z,101021.56
2022-08-19T23:03:34.645Z,101022.19
2022-08-19T23:08:39.666Z,101025.56
2022-08-19T23:13:42.186Z,101034.03
2022-08-19T23:18:45.288Z,101028.81
2022-08-19T23:23:46.817Z,101022.09
2022-08-19T23:29:06.913Z,101017.34
2022-08-19T23:34:08.426Z,101014.53
2022-08-19T23:39:10.039Z,101016.69
2022-08-19T23:44:14.904Z,101012.22
2022-08-19T23:49:16.927Z,101003.44
2022-08-19T23:54:18.560Z,101012.97
2022-08-19T23:59:20.331Z,101004.78
